Time;durP1;ratioP1;P1;durP2;ratioP2;P2;SDS_P1;SDS_P2;PMS_P1;PMS_P2;Temp;Humidity;BMP_temperature;BMP_pressure;BME280_temperature;BME280_humidity;BME280_pressure;Samples;Min_cycle;Max_cycle;Signal;HPM_P1;HPM_P2
2022/01/26 00:08:47;;;;;;;9.97;9.67;;;1.40;99.90;;;;;;5080839;28;20228;-81
2022/01/26 00:26:04;;;;;;;10.30;10.00;;;1.20;99.90;;;;;;5080160;28;20245;-81
2022/01/26 00:43:56;;;;;;;10.30;10.00;;;1.20;99.90;;;;;;5039995;28;20234;-82
2022/01/26 00:47:19;;;;;;;10.07;9.77;;;1.20;99.90;;;;;;5084248;28;20213;-81
2022/01/26 00:50:20;;;;;;;10.30;10.00;;;1.20;99.90;;;;;;5087793;28;20284;-81
2022/01/26 00:53:29;;;;;;;10.50;10.20;;;1.20;99.90;;;;;;5051730;28;20257;-81
2022/01/26 01:07:18;;;;;;;10.47;10.17;;;1.20;99.90;;;;;;5047177;28;20222;-81
2022/01/26 01:24:52;;;;;;;9.80;9.50;;;1.30;99.90;;;;;;5103320;28;20223;-81
2022/01/26 01:28:49;;;;;;;9.50;9.20;;;1.20;99.90;;;;;;5062019;28;20233;-81
2022/01/26 01:32:30;;;;;;;9.47;9.17;;;1.20;99.90;;;;;;5046539;28;20226;-81
2022/01/26 01:40:06;;;;;;;9.30;9.00;;;1.20;99.90;;;;;;5052641;28;20250;-81
2022/01/26 01:57:55;;;;;;;;;;;;;;;;;;;;;
2022/01/26 02:04:44;;;;;;;9.37;9.07;;;1.10;99.90;;;;;;5035570;28;20227;-82
2022/01/26 02:15:41;;;;;;;8.97;8.77;;;1.20;99.90;;;;;;5060102;28;20241;-81
2022/01/26 02:56:41;;;;;;;9.20;8.90;;;1.00;99.90;;;;;;5079668;28;20261;-83
2022/01/26 04:16:50;;;;;;;9.40;9.10;;;0.80;99.90;;;;;;5086153;28;20795;-84
2022/01/26 04:20:08;;;;;;;9.60;9.30;;;0.70;99.90;;;;;;5092128;28;20214;-83
2022/01/26 04:29:59;;;;;;;9.33;9.03;;;0.80;99.90;;;;;;5080070;28;20308;-84
2022/01/26 04:33:38;;;;;;;9.40;9.10;;;0.80;99.90;;;;;;5073982;28;20233;-83
2022/01/26 04:40:54;;;;;;;9.10;8.80;;;0.80;99.90;;;;;;5011601;28;20265;-81
2022/01/26 04:44:03;;;;;;;9.30;9.00;;;0.80;99.90;;;;;;5089379;28;20226;-82
2022/01/26 04:54:10;;;;;;;9.70;9.40;;;0.50;99.90;;;;;;5086656;28;20230;-83
2022/01/26 05:03:42;;;;;;;9.40;9.10;;;0.70;99.90;;;;;;5005598;28;20240;-82
2022/01/26 05:06:42;;;;;;;9.40;9.10;;;0.60;99.90;;;;;;5017477;28;20259;-82
2022/01/26 05:09:49;;;;;;;9.80;9.50;;;0.60;99.90;;;;;;5089173;28;20229;-82
2022/01/26 05:18:56;;;;;;;9.60;9.30;;;0.30;99.90;;;;;;5080628;28;20267;-83
2022/01/26 05:21:47;;;;;;;10.00;9.70;;;0.10;99.90;;;;;;5086023;28;20241;-82
2022/01/26 05:27:44;;;;;;;10.20;9.90;;;0.00;99.90;;;;;;5084677;28;20241;-82
2022/01/26 05:30:28;;;;;;;10.00;9.70;;;0.00;99.90;;;;;;5088123;28;20241;-82
2022/01/26 05:36:14;;;;;;;10.20;9.90;;;-0.20;99.90;;;;;;5083947;28;20247;-82
2022/01/26 05:38:42;;;;;;;10.00;9.70;;;-0.20;99.90;;;;;;5116393;22;20240;-83
2022/01/26 05:41:19;;;;;;;9.90;9.60;;;-0.20;99.90;;;;;;5103007;28;20225;-83
2022/01/26 05:46:40;;;;;;;10.10;9.80;;;0.00;99.90;;;;;;5108928;28;20244;-83
2022/01/26 05:49:08;;;;;;;9.73;9.43;;;0.00;99.90;;;;;;5108887;28;20356;-82
2022/01/26 05:51:36;;;;;;;9.87;9.57;;;0.10;99.90;;;;;;5102232;28;20326;-82
2022/01/26 05:54:08;;;;;;;9.90;9.60;;;0.10;99.90;;;;;;5102225;28;20279;-82
2022/01/26 05:56:36;;;;;;;9.40;9.10;;;0.10;99.90;;;;;;5102732;28;20214;-82
2022/01/26 05:59:24;;;;;;;9.40;9.10;;;0.20;99.90;;;;;;5102054;28;20241;-83
2022/01/26 06:01:52;;;;;;;9.40;9.10;;;0.20;99.90;;;;;;5102245;28;20231;-82
2022/01/26 06:04:29;;;;;;;9.50;9.20;;;0.20;99.90;;;;;;5102271;28;20280;-82
2022/01/26 06:06:59;;;;;;;9.40;9.10;;;0.30;99.90;;;;;;5101861;28;20237;-83
2022/01/26 06:09:28;;;;;;;9.03;8.80;;;0.30;99.90;;;;;;5102134;28;20237;-82
2022/01/26 06:12:01;;;;;;;8.93;8.73;;;0.20;99.90;;;;;;5100015;28;20237;-83
2022/01/26 06:14:35;;;;;;;9.37;9.07;;;0.10;99.90;;;;;;5106663;28;20225;-83
2022/01/26 06:17:07;;;;;;;9.67;9.37;;;0.20;99.90;;;;;;5101791;28;20237;-83
2022/01/26 06:19:41;;;;;;;9.33;9.03;;;0.20;99.90;;;;;;5100090;28;20245;-83
2022/01/26 06:22:12;;;;;;;9.73;9.43;;;0.20;99.90;;;;;;5099363;28;20304;-82
2022/01/26 06:24:40;;;;;;;9.60;9.30;;;0.20;99.90;;;;;;5100548;28;20221;-83
2022/01/26 06:27:15;;;;;;;9.53;9.23;;;0.30;99.90;;;;;;5100265;28;20240;-83
2022/01/26 06:29:45;;;;;;;9.30;9.00;;;0.20;99.90;;;;;;5101345;28;20285;-82
2022/01/26 06:32:18;;;;;;;9.27;8.97;;;0.30;99.90;;;;;;5100630;28;20242;-81
2022/01/26 06:34:46;;;;;;;9.60;9.30;;;0.40;99.90;;;;;;5099919;28;20283;-82
2022/01/26 06:37:16;;;;;;;9.63;9.33;;;0.30;99.90;;;;;;5115959;28;20290;-81
2022/01/26 06:39:46;;;;;;;9.83;9.53;;;0.40;99.90;;;;;;5100798;28;20245;-82
2022/01/26 06:42:25;;;;;;;9.67;9.37;;;0.40;99.90;;;;;;5100878;28;20231;-82
2022/01/26 06:45:09;;;;;;;9.53;9.23;;;0.40;99.90;;;;;;5110140;28;20225;-83
2022/01/26 06:47:54;;;;;;;9.70;9.40;;;0.40;99.90;;;;;;5104546;28;20257;-83
2022/01/26 06:50:24;;;;;;;10.20;9.90;;;0.40;99.90;;;;;;5106367;28;20247;-83
2022/01/26 06:52:52;;;;;;;10.20;9.90;;;0.40;99.90;;;;;;5104702;28;20229;-83
2022/01/26 06:55:22;;;;;;;9.83;9.53;;;0.40;99.90;;;;;;5119771;28;20252;-81
2022/01/26 06:57:54;;;;;;;10.20;9.90;;;0.40;99.90;;;;;;5114319;28;20225;-83
2022/01/26 07:00:29;;;;;;;10.40;10.10;;;0.40;99.90;;;;;;5105055;28;20234;-85
2022/01/26 07:37:20;;;;;;;10.70;10.40;;;0.40;99.90;;;;;;4990573;28;20244;-86
2022/01/26 07:47:06;;;;;;;10.27;9.97;;;0.30;99.90;;;;;;5014615;28;20229;-88
2022/01/26 07:57:46;;;;;;;10.30;10.00;;;0.40;99.90;;;;;;5113069;28;20374;-86
2022/01/26 08:03:37;;;;;;;10.30;10.00;;;0.30;99.90;;;;;;5044847;28;20153;-82
2022/01/26 08:09:10;;;;;;;10.37;10.07;;;0.20;99.90;;;;;;5105194;28;20243;-86
2022/01/26 08:11:44;;;;;;;11.00;10.70;;;0.10;99.90;;;;;;5103745;28;20241;-86
2022/01/26 08:14:55;;;;;;;10.60;10.30;;;0.10;99.90;;;;;;5103986;28;20224;-85
2022/01/26 08:17:26;;;;;;;10.50;10.20;;;0.10;99.90;;;;;;5105527;28;20233;-84
2022/01/26 08:19:55;;;;;;;10.00;9.70;;;0.10;99.90;;;;;;5106631;28;20312;-84
2022/01/26 08:22:32;;;;;;;10.30;10.00;;;0.10;99.90;;;;;;5106768;28;20217;-83
2022/01/26 08:28:27;;;;;;;10.33;10.03;;;0.20;99.90;;;;;;5104458;28;20241;-85
2022/01/26 08:35:51;;;;;;;9.40;9.10;;;0.60;99.90;;;;;;4979281;28;20233;-87
2022/01/26 08:38:49;;;;;;;10.23;9.93;;;0.40;99.90;;;;;;4980977;28;20314;-82
2022/01/26 08:44:23;;;;;;;9.57;9.27;;;0.40;99.90;;;;;;5114242;28;20316;-83
2022/01/26 08:47:02;;;;;;;9.80;9.50;;;0.50;99.90;;;;;;5121290;28;20236;-83
2022/01/26 08:49:37;;;;;;;9.00;8.80;;;0.50;99.90;;;;;;5120669;28;20248;-84
2022/01/26 08:52:16;;;;;;;9.13;8.90;;;0.50;99.90;;;;;;5121096;28;20240;-84
2022/01/26 08:54:59;;;;;;;9.60;9.30;;;0.50;99.90;;;;;;5120878;28;20206;-84
2022/01/26 09:00:37;;;;;;;9.77;9.47;;;0.60;99.90;;;;;;5119891;28;20228;-84
2022/01/26 09:03:27;;;;;;;9.30;9.00;;;0.60;99.90;;;;;;5120965;28;20193;-83
2022/01/26 09:06:20;;;;;;;10.00;9.70;;;0.70;99.90;;;;;;5120336;28;20297;-83
2022/01/26 09:12:53;;;;;;;9.00;8.80;;;0.80;99.90;;;;;;5119461;28;20233;-84
2022/01/26 09:18:31;;;;;;;9.17;8.90;;;0.60;99.90;;;;;;5123721;28;20221;-85
2022/01/26 09:28:09;;;;;;;9.70;9.40;;;0.70;99.90;;;;;;5132963;28;20220;-85
2022/01/26 09:30:52;;;;;;;10.20;9.90;;;0.80;99.90;;;;;;5133016;28;20236;-85
2022/01/26 09:39:31;;;;;;;10.00;9.70;;;0.90;99.90;;;;;;5129258;28;20216;-83
2022/01/26 10:35:28;;;;;;;10.47;10.17;;;0.90;99.90;;;;;;6091144;23;20198;-84
2022/01/26 10:38:19;;;;;;;9.80;9.50;;;1.00;99.90;;;;;;6097275;23;20245;-83
2022/01/26 10:44:47;;;;;;;9.93;9.63;;;1.00;99.90;;;;;;6269599;22;20193;-84
2022/01/26 10:50:46;;;;;;;10.03;9.73;;;0.90;99.90;;;;;;6265460;22;20209;-84
2022/01/26 10:53:40;;;;;;;10.20;9.90;;;0.70;99.90;;;;;;6270130;22;20204;-84
2022/01/26 10:56:33;;;;;;;10.20;9.90;;;0.70;99.90;;;;;;6271471;22;20216;-83
2022/01/26 10:59:12;;;;;;;10.00;9.70;;;0.70;99.90;;;;;;6270548;22;20293;-84
2022/01/26 11:01:50;;;;;;;9.43;9.13;;;0.60;99.90;;;;;;6270945;22;20252;-84
2022/01/26 11:04:26;;;;;;;10.00;9.70;;;0.70;99.90;;;;;;6270550;22;20300;-83
2022/01/26 11:10:12;;;;;;;10.37;10.07;;;0.70;99.90;;;;;;6263224;22;20268;-83
2022/01/26 11:12:48;;;;;;;10.47;10.17;;;0.60;99.90;;;;;;6265362;22;20206;-84
2022/01/26 11:15:32;;;;;;;10.10;9.80;;;0.60;99.90;;;;;;6275925;22;20241;-82
2022/01/26 11:18:22;;;;;;;10.10;9.80;;;0.60;99.90;;;;;;6277604;22;20201;-83
2022/01/26 11:23:48;;;;;;;10.30;10.00;;;0.60;99.90;;;;;;6268123;22;20204;-83
2022/01/26 11:27:10;;;;;;;9.80;9.50;;;0.70;99.90;;;;;;6275392;22;20198;-84
2022/01/26 11:29:58;;;;;;;9.80;9.50;;;0.70;99.90;;;;;;6266895;22;20236;-83
2022/01/26 11:35:58;;;;;;;10.10;9.80;;;0.70;99.90;;;;;;6271252;22;20245;-83
2022/01/26 11:38:51;;;;;;;10.17;9.87;;;0.70;99.90;;;;;;6264492;22;20292;-79
2022/01/26 11:47:06;;;;;;;9.70;9.40;;;0.70;99.90;;;;;;6255653;22;20194;-79
2022/01/26 11:49:36;;;;;;;9.97;9.67;;;0.60;99.90;;;;;;6255194;22;20213;-79
2022/01/26 11:52:06;;;;;;;9.70;9.40;;;0.60;99.90;;;;;;6255514;22;20198;-80
2022/01/26 11:54:49;;;;;;;9.90;9.60;;;0.50;99.90;;;;;;6255546;22;20190;-79
2022/01/26 11:57:18;;;;;;;10.03;9.73;;;0.50;99.90;;;;;;6256351;22;20268;-79
2022/01/26 12:00:02;;;;;;;9.90;9.60;;;0.40;99.90;;;;;;6255368;22;20252;-80
2022/01/26 12:02:49;;;;;;;9.67;9.37;;;0.50;99.90;;;;;;6254841;22;20191;-80
2022/01/26 12:05:22;;;;;;;10.10;9.80;;;0.40;99.90;;;;;;6255650;22;20194;-80
2022/01/26 12:07:52;;;;;;;10.03;9.73;;;0.40;99.90;;;;;;6255460;22;20198;-79
2022/01/26 12:10:28;;;;;;;10.13;9.83;;;0.50;99.90;;;;;;6256553;22;20194;-79
2022/01/26 12:13:06;;;;;;;9.97;9.67;;;0.50;99.90;;;;;;6256105;22;20193;-79
2022/01/26 12:15:42;;;;;;;10.07;9.77;;;0.50;99.90;;;;;;6256614;22;20243;-79
2022/01/26 12:18:29;;;;;;;9.90;9.60;;;0.50;99.90;;;;;;6261011;22;20201;-80
2022/01/26 12:35:22;;;;;;;9.80;9.50;;;0.40;99.90;;;;;;6254718;22;20291;-80
2022/01/26 12:38:04;;;;;;;9.37;9.07;;;0.50;99.90;;;;;;6256753;22;20202;-80
2022/01/26 12:43:36;;;;;;;9.27;8.97;;;0.50;99.90;;;;;;6256215;22;20243;-80
2022/01/26 12:46:10;;;;;;;9.57;9.27;;;0.30;99.90;;;;;;6255703;22;20244;-80
2022/01/26 12:48:42;;;;;;;9.47;9.17;;;0.30;99.90;;;;;;6256367;22;20201;-80
2022/01/26 12:51:12;;;;;;;9.50;9.20;;;0.10;99.90;;;;;;6256404;22;20201;-79
2022/01/26 12:53:41;;;;;;;9.80;9.50;;;0.00;99.90;;;;;;6258376;22;20245;-80
2022/01/26 12:56:12;;;;;;;10.30;10.00;;;0.00;99.90;;;;;;6257498;22;20205;-80
2022/01/26 12:58:42;;;;;;;10.50;10.20;;;0.00;99.90;;;;;;6257474;22;20233;-83
2022/01/26 13:01:17;;;;;;;9.60;9.30;;;0.20;99.90;;;;;;6256270;22;20205;-79
2022/01/26 13:03:49;;;;;;;10.20;9.90;;;0.50;99.90;;;;;;6255758;22;20207;-79
2022/01/26 13:06:32;;;;;;;10.13;9.83;;;0.40;99.90;;;;;;6255214;22;20268;-80
2022/01/26 13:09:05;;;;;;;10.27;9.97;;;0.30;99.90;;;;;;6253485;22;20237;-79
2022/01/26 13:11:36;;;;;;;9.70;9.40;;;0.40;99.90;;;;;;6251629;22;20190;-79
2022/01/26 13:14:12;;;;;;;9.70;9.40;;;0.30;99.90;;;;;;6253186;22;20237;-77
2022/01/26 13:16:47;;;;;;;9.90;9.60;;;0.20;99.90;;;;;;6252539;22;20227;-78
2022/01/26 13:19:35;;;;;;;9.87;9.57;;;0.20;99.90;;;;;;6253181;22;20240;-79
2022/01/26 13:25:05;;;;;;;10.20;9.90;;;0.20;99.90;;;;;;6245551;22;20204;-79
2022/01/26 13:27:44;;;;;;;10.10;9.80;;;0.30;99.90;;;;;;6256900;22;20278;-80
2022/01/26 13:30:25;;;;;;;9.90;9.60;;;0.30;99.90;;;;;;6262156;22;20598;-79
2022/01/26 13:33:25;;;;;;;10.10;9.80;;;0.20;99.90;;;;;;6265846;22;20203;-79
2022/01/26 13:36:12;;;;;;;9.83;9.53;;;0.20;99.90;;;;;;6265672;22;20195;-79
2022/01/26 13:38:56;;;;;;;10.17;9.87;;;0.30;99.90;;;;;;6261530;22;20216;-79
2022/01/26 13:41:34;;;;;;;10.07;9.77;;;0.30;99.90;;;;;;6261633;22;20252;-80
2022/01/26 13:49:49;;;;;;;10.00;9.70;;;0.20;99.90;;;;;;6270464;22;20201;-79
2022/01/26 13:55:29;;;;;;;9.90;9.60;;;-0.10;99.90;;;;;;6235735;22;20312;-78
2022/01/26 14:00:56;;;;;;;9.90;9.60;;;-0.10;99.90;;;;;;6258017;22;20216;-79
2022/01/26 14:03:27;;;;;;;10.30;10.00;;;-0.10;99.90;;;;;;6258818;22;20207;-79
2022/01/26 14:05:55;;;;;;;10.67;10.37;;;-0.10;99.90;;;;;;6270087;22;20193;-79
2022/01/26 14:08:24;;;;;;;10.40;10.10;;;-0.10;99.90;;;;;;6267961;22;20261;-79
2022/01/26 14:10:52;;;;;;;10.50;10.20;;;-0.10;99.90;;;;;;6267199;22;20201;-79
2022/01/26 14:13:23;;;;;;;10.50;10.20;;;0.00;99.90;;;;;;6264506;22;20195;-79
2022/01/26 14:15:53;;;;;;;10.27;9.97;;;0.10;99.90;;;;;;6263336;22;20198;-79
2022/01/26 14:21:23;;;;;;;10.10;9.80;;;0.20;99.90;;;;;;6257050;22;20233;-79
2022/01/26 14:24:24;;;;;;;10.10;9.80;;;0.10;99.90;;;;;;6263882;22;20206;-79
2022/01/26 14:26:55;;;;;;;10.30;10.00;;;0.10;99.90;;;;;;6256109;22;20205;-79
2022/01/26 14:29:33;;;;;;;9.77;9.47;;;0.10;99.90;;;;;;6256175;22;20206;-79
2022/01/26 14:40:53;;;;;;;10.20;9.90;;;0.00;99.90;;;;;;6258789;22;20288;-79
2022/01/26 14:51:57;;;;;;;9.80;9.50;;;0.10;99.90;;;;;;6261318;22;20189;-79
2022/01/26 14:54:43;;;;;;;9.40;9.10;;;0.10;99.90;;;;;;6261214;22;20194;-79
2022/01/26 15:00:11;;;;;;;10.50;10.20;;;0.10;99.90;;;;;;6259548;22;20198;-79
2022/01/26 15:20:13;;;;;;;10.03;9.73;;;0.00;99.90;;;;;;6260487;22;20198;-79
2022/01/26 15:30:58;;;;;;;9.53;9.23;;;0.00;99.90;;;;;;6259905;22;20190;-79
2022/01/26 15:33:33;;;;;;;9.77;9.47;;;0.00;99.90;;;;;;6260034;22;20260;-80
2022/01/26 15:41:57;;;;;;;10.00;9.70;;;-0.10;99.90;;;;;;6255262;22;20190;-79
2022/01/26 15:44:38;;;;;;;10.10;9.80;;;-0.10;99.90;;;;;;6254530;22;20288;-79
2022/01/26 15:49:57;;;;;;;9.80;9.50;;;0.00;99.90;;;;;;6269163;22;20209;-78
2022/01/26 15:52:44;;;;;;;10.00;9.70;;;0.00;99.90;;;;;;6263621;22;20194;-78
2022/01/26 15:58:12;;;;;;;9.70;9.40;;;-0.10;99.90;;;;;;6252378;22;20305;-78
2022/01/26 16:06:21;;;;;;;9.93;9.63;;;-0.20;99.90;;;;;;6254000;22;20276;-78
2022/01/26 16:17:44;;;;;;;9.60;9.30;;;-0.20;99.90;;;;;;6253215;22;20205;-79
2022/01/26 16:20:34;;;;;;;9.30;9.00;;;-0.10;99.90;;;;;;6253639;22;20216;-79
2022/01/26 18:04:16;;;;;;;8.00;7.80;;;0.30;99.90;;;;;;6287860;22;20224;-82
2022/01/26 18:18:03;;;;;;;8.20;8.00;;;0.20;99.90;;;;;;6287536;22;20320;-81
2022/01/26 18:26:26;;;;;;;8.23;8.03;;;0.20;99.90;;;;;;6290671;22;20197;-83
2022/01/26 18:50:49;;;;;;;8.00;7.80;;;0.20;99.90;;;;;;6289746;22;20200;-83
2022/01/26 18:53:23;;;;;;;8.70;8.50;;;0.20;99.90;;;;;;6289893;22;20193;-84
2022/01/26 18:55:53;;;;;;;8.70;8.50;;;0.20;99.90;;;;;;6290904;22;20193;-84
2022/01/26 19:01:15;;;;;;;8.80;8.60;;;0.20;99.90;;;;;;6289287;22;20204;-84
2022/01/26 19:04:03;;;;;;;9.30;9.00;;;0.20;99.90;;;;;;6289557;22;20201;-85
2022/01/26 19:06:33;;;;;;;8.80;8.60;;;0.20;99.90;;;;;;6290638;22;20279;-83
2022/01/26 19:09:18;;;;;;;8.50;8.30;;;0.20;99.90;;;;;;6289213;22;20272;-82
2022/01/26 19:11:49;;;;;;;8.70;8.50;;;0.20;99.90;;;;;;6290386;22;20201;-83
2022/01/26 19:14:17;;;;;;;9.20;8.90;;;0.10;99.90;;;;;;6289185;22;20284;-83
2022/01/26 19:16:52;;;;;;;9.67;9.37;;;0.20;99.90;;;;;;6288888;22;20276;-82
2022/01/26 19:19:28;;;;;;;9.30;9.00;;;0.10;99.90;;;;;;6287678;22;20222;-83
2022/01/26 19:22:10;;;;;;;9.30;9.00;;;0.10;99.90;;;;;;6289674;22;20207;-82
2022/01/26 19:24:46;;;;;;;9.30;9.00;;;0.10;99.90;;;;;;6289216;22;20193;-81
2022/01/26 19:27:24;;;;;;;9.17;8.90;;;0.10;99.90;;;;;;6289029;22;20193;-81
2022/01/26 19:44:07;;;;;;;9.27;8.97;;;0.00;99.90;;;;;;6248916;22;20197;-81
2022/01/26 19:47:01;;;;;;;9.37;9.07;;;0.00;99.90;;;;;;6288208;22;20208;-81
2022/01/26 19:52:16;;;;;;;9.07;8.83;;;0.10;99.90;;;;;;6297850;22;20181;-81
2022/01/26 19:55:13;;;;;;;9.37;9.07;;;0.10;99.90;;;;;;6294539;22;20212;-81
2022/01/26 20:00:56;;;;;;;9.30;9.00;;;0.10;99.90;;;;;;6286571;22;20235;-83
2022/01/26 20:03:42;;;;;;;9.30;9.00;;;0.10;99.90;;;;;;6292051;22;20194;-84
2022/01/26 20:06:27;;;;;;;9.47;9.17;;;0.10;99.90;;;;;;6286607;22;20211;-83
2022/01/26 20:11:55;;;;;;;9.53;9.23;;;0.20;99.90;;;;;;6266263;22;20208;-82
2022/01/26 20:15:22;;;;;;;8.90;8.70;;;0.20;99.90;;;;;;6286887;22;20196;-83
2022/01/26 20:18:42;;;;;;;8.43;8.23;;;0.20;99.90;;;;;;6286999;22;20979;-82
2022/01/26 20:21:34;;;;;;;9.00;8.80;;;0.10;99.90;;;;;;6287077;22;20215;-82
2022/01/26 20:27:33;;;;;;;9.20;8.90;;;0.10;99.90;;;;;;6264696;22;20201;-82
2022/01/26 20:30:13;;;;;;;9.00;8.70;;;0.10;99.90;;;;;;6286965;22;20260;-82
2022/01/26 20:36:37;;;;;;;9.20;8.90;;;0.00;99.90;;;;;;6280216;22;20247;-83
2022/01/26 20:39:39;;;;;;;8.80;8.60;;;0.00;99.90;;;;;;6287944;22;20197;-83
2022/01/26 20:45:20;;;;;;;8.70;8.50;;;0.00;99.90;;;;;;6275472;22;20263;-81
2022/01/26 20:47:55;;;;;;;8.60;8.40;;;0.00;99.90;;;;;;6288647;22;20208;-82
2022/01/26 20:50:39;;;;;;;8.50;8.30;;;0.00;99.90;;;;;;6287906;22;20201;-81
2022/01/26 20:53:23;;;;;;;8.57;8.37;;;0.00;99.90;;;;;;6287797;22;20197;-82
2022/01/26 20:56:20;;;;;;;8.40;8.20;;;0.10;99.90;;;;;;6286102;22;20205;-82
2022/01/26 20:59:03;;;;;;;8.93;8.67;;;0.10;99.90;;;;;;6280360;22;20219;-83
2022/01/26 21:01:34;;;;;;;8.47;8.27;;;0.10;99.90;;;;;;6288422;22;20193;-83
2022/01/26 21:04:17;;;;;;;8.20;8.00;;;0.10;99.90;;;;;;6289977;22;20200;-82
2022/01/26 21:06:55;;;;;;;8.73;8.53;;;0.10;99.90;;;;;;6286104;22;20201;-82
2022/01/26 21:09:26;;;;;;;9.50;9.20;;;0.10;99.90;;;;;;6290042;22;20208;-81
2022/01/26 21:11:56;;;;;;;9.30;9.00;;;0.10;99.90;;;;;;6288232;22;20197;-81
2022/01/26 21:14:39;;;;;;;9.10;8.80;;;0.00;99.90;;;;;;6290923;22;20207;-83
2022/01/26 21:17:12;;;;;;;8.70;8.50;;;0.00;99.90;;;;;;6287276;22;20260;-81
2022/01/26 21:20:06;;;;;;;8.50;8.30;;;0.00;99.90;;;;;;6291363;22;20263;-82
2022/01/26 21:22:35;;;;;;;8.37;8.17;;;0.00;99.90;;;;;;6291502;22;20732;-81
2022/01/26 21:25:11;;;;;;;8.50;8.30;;;-0.10;99.90;;;;;;6287570;22;20341;-82
2022/01/26 21:27:41;;;;;;;8.60;8.40;;;-0.10;99.90;;;;;;6287718;22;20186;-81
2022/01/26 21:30:12;;;;;;;8.80;8.60;;;0.00;99.90;;;;;;6287447;22;20824;-82
2022/01/26 21:32:42;;;;;;;8.50;8.30;;;-0.10;99.90;;;;;;6288402;22;20206;-81
2022/01/26 21:35:52;;;;;;;8.60;8.40;;;0.00;99.90;;;;;;6287826;22;20201;-82
2022/01/26 21:38:20;;;;;;;8.40;8.20;;;0.00;99.90;;;;;;6290247;22;20271;-82
2022/01/26 21:40:54;;;;;;;8.47;8.27;;;0.00;99.90;;;;;;6302263;22;20295;-82
2022/01/26 21:43:37;;;;;;;8.83;8.63;;;-0.10;99.90;;;;;;6320436;22;20227;-82
2022/01/26 21:46:08;;;;;;;8.90;8.70;;;0.00;99.90;;;;;;6319348;22;20196;-81
2022/01/26 21:48:42;;;;;;;9.23;8.93;;;0.00;99.90;;;;;;6319558;22;20189;-81
2022/01/26 21:51:17;;;;;;;9.23;8.93;;;0.00;99.90;;;;;;6326054;22;20196;-82
2022/01/26 21:53:49;;;;;;;9.47;9.17;;;0.00;99.90;;;;;;6337859;22;20215;-81
2022/01/26 21:56:20;;;;;;;9.33;9.03;;;0.00;99.90;;;;;;6335745;22;20279;-80
2022/01/26 21:58:48;;;;;;;9.70;9.40;;;0.00;99.90;;;;;;6335929;22;20193;-81
2022/01/26 22:04:52;;;;;;;9.30;9.00;;;-0.10;99.90;;;;;;6340290;22;20230;-81
2022/01/26 22:07:35;;;;;;;9.27;8.97;;;-0.20;99.90;;;;;;6340686;22;20223;-81
2022/01/26 22:10:09;;;;;;;9.30;9.00;;;-0.20;99.90;;;;;;6340684;22;20180;-79
2022/01/26 22:15:42;;;;;;;9.43;9.13;;;-0.20;99.90;;;;;;6278244;22;20188;-82
2022/01/26 22:18:11;;;;;;;9.70;9.40;;;-0.20;99.90;;;;;;6331182;22;20198;-81
2022/01/26 22:20:41;;;;;;;9.57;9.27;;;-0.20;99.90;;;;;;6341535;22;20263;-82
2022/01/26 22:23:11;;;;;;;9.27;8.97;;;-0.10;99.90;;;;;;6339473;22;20212;-80
2022/01/26 22:25:39;;;;;;;9.80;9.50;;;-0.20;99.90;;;;;;6335710;22;20200;-82
2022/01/26 22:28:18;;;;;;;9.23;8.93;;;-0.20;99.90;;;;;;6332690;22;20196;-81
2022/01/26 22:30:46;;;;;;;9.40;9.10;;;-0.20;99.90;;;;;;6325754;22;20204;-81
2022/01/26 22:33:34;;;;;;;9.33;9.03;;;-0.20;99.90;;;;;;6330301;22;20244;-82
2022/01/26 22:40:11;;;;;;;9.60;9.30;;;-0.20;99.90;;;;;;6274477;22;20207;-82
2022/01/26 22:43:00;;;;;;;9.30;9.00;;;-0.20;99.90;;;;;;6310059;22;20213;-81
2022/01/26 22:46:03;;;;;;;9.70;9.40;;;-0.30;99.90;;;;;;6301217;22;20432;-81
2022/01/26 22:48:34;;;;;;;9.43;9.13;;;-0.20;99.90;;;;;;6262436;22;20263;-83
2022/01/26 22:51:41;;;;;;;9.53;9.23;;;-0.20;99.90;;;;;;6297921;22;20204;-82
2022/01/26 22:54:49;;;;;;;9.23;8.93;;;-0.10;99.90;;;;;;6296236;22;20266;-83
2022/01/26 22:57:42;;;;;;;9.43;9.13;;;-0.10;99.90;;;;;;6289526;22;20193;-83
2022/01/26 23:05:36;;;;;;;9.40;9.10;;;-0.20;99.90;;;;;;6293696;22;20189;-82
2022/01/26 23:10:58;;;;;;;9.30;9.00;;;-0.20;99.90;;;;;;6288158;22;20211;-83
2022/01/26 23:13:27;;;;;;;9.40;9.10;;;-0.20;99.90;;;;;;6292477;22;20255;-82
2022/01/26 23:15:56;;;;;;;9.30;9.00;;;-0.20;99.90;;;;;;6291393;22;20208;-82
2022/01/26 23:18:24;;;;;;;9.53;9.23;;;-0.30;99.90;;;;;;6308608;22;20220;-82
2022/01/26 23:20:52;;;;;;;9.50;9.20;;;-0.20;99.90;;;;;;6309194;22;20208;-81
2022/01/26 23:23:20;;;;;;;9.00;8.80;;;-0.30;99.90;;;;;;6310558;22;20217;-83
2022/01/26 23:25:54;;;;;;;9.17;8.87;;;-0.20;99.90;;;;;;6310676;22;20220;-83
2022/01/26 23:28:42;;;;;;;9.37;9.07;;;-0.20;99.90;;;;;;6310604;22;20179;-83
2022/01/26 23:31:28;;;;;;;9.27;8.97;;;-0.20;99.90;;;;;;6309433;22;20253;-82
2022/01/26 23:34:19;;;;;;;10.00;9.70;;;-0.30;99.90;;;;;;6310156;22;20184;-82
2022/01/26 23:40:20;;;;;;;9.80;9.50;;;-0.40;99.90;;;;;;6311182;22;20242;-81
